Etusivu
METAR-TAF:

METAR-TAF

Lentoasemat :

Municipal_Airport

Socorro, New Mexico, Yhdysvallat

Leveyspiiri: 34-01N, Pituuspiiri: 106-54W, korkeus merenpinnasta: 1478 m

Tämänhetkinen sää

Tämä raportti tehtiin 14 minuuttia sitten, kello 04.15 UTC
Tuuli 11 kn idästä puuskistuen 17 kn:hen
Lämpötila 19°C
Kosteus 56%
Ilmanpaine 1023 hPa
Näkyvyys: 16.1 km
Hajanaisia pilviä 9000 ft:n korkeudessa

METAR: KONM 260415Z AUTO 08011G17KT 10SM SCT090 19/10 A3022 RMK AO2 T01850098

Aika: 22:29 (04:29 UTC)


TAF: puuttuu

Säähavainnot ja -ennusteet yli 4000 lentoasemalta (METAR- ja TAF-raportit).

Käytössä olevat sääasemat on merkitty karttaan keltaisilla ja punaisilla pisteillä.

Aseta hiiri pisteen päälle nähdäksesi sääaseman nimen.

Klikkaa sitten nähdäksesi säähavainnot ja -ennusteet.

Kartan vaihtaminen: klikkaa mustalla rastilla varustettuja vihreitä pisteitä, niin voit zoomata sisään; viivalla varustettua vihreää pistettä, niin voit zoomata ulos tai vihreitä nuolia, niin pääset viereisille kartoille.


METAR-TAF: